Young America, Indiana
Current Conditions -  °F | °C
As of 6:55 PM on Saturday 25 Oct 2014 (Local Time) from KGGP Reporting Station
Clear Clear  
Wind Chill: 63°   Ceiling: Unl
Heat Index: 63°   Visibility: 10mi
Dew Point: 37°   Wind: 6mph
Humidity: 39%   Direction: 280°W
Pressure: 29.91"   Gusts: NA
Location:  40.57°N, 86.35°W
Report Text: KGGP 252255Z AUTO 28005KT 10SM CLR 17/03 A2991 RMK AO2 P0001
Loading
Personal Weather Stations






























Interactive Weather Map
Tropical Storm Tracking
New forecast layout! Learn more

10-Day Weather Forecast

Advertisements
Track Severe Weather on mobile